Time;durP1;ratioP1;P1;durP2;ratioP2;P2;SDS_P1;SDS_P2;PMS_P1;PMS_P2;Temp;Humidity;BMP_temperature;BMP_pressure;BME280_temperature;BME280_humidity;BME280_pressure;Samples;Min_cycle;Max_cycle;Signal;HPM_P1;HPM_P2
2022/07/26 00:00:16;;;;;;;14.55;2.22;;;17.30;99.90;;;;;;5005964;28;20468;-53
2022/07/26 00:02:42;;;;;;;12.73;2.95;;;17.20;99.90;;;;;;5006535;28;20053;-52
2022/07/26 00:05:08;;;;;;;9.93;1.88;;;17.70;99.90;;;;;;5005883;28;20045;-53
2022/07/26 00:07:34;;;;;;;14.07;2.42;;;17.20;99.90;;;;;;5005808;28;20053;-53
2022/07/26 00:10:00;;;;;;;7.78;1.58;;;17.30;99.90;;;;;;5004928;28;20054;-53
2022/07/26 00:12:25;;;;;;;10.85;2.53;;;17.20;99.90;;;;;;5005198;28;20046;-53
2022/07/26 00:14:52;;;;;;;11.80;2.47;;;17.60;99.90;;;;;;5007510;28;20080;-54
2022/07/26 00:17:17;;;;;;;12.60;2.42;;;17.20;99.90;;;;;;4991271;28;20121;-52
2022/07/26 00:19:43;;;;;;;15.80;2.45;;;17.20;99.90;;;;;;5009475;28;20219;-50
2022/07/26 00:24:53;;;;;;;8.70;1.52;;;17.20;99.90;;;;;;5009281;28;20278;-53
2022/07/26 00:27:19;;;;;;;12.93;3.03;;;17.20;99.90;;;;;;5009165;28;20045;-53
2022/07/26 00:29:45;;;;;;;10.77;2.10;;;17.10;99.90;;;;;;5009990;28;20038;-54
2022/07/26 00:32:10;;;;;;;11.52;2.75;;;17.50;99.90;;;;;;5009825;28;20073;-52
2022/07/26 00:34:36;;;;;;;13.07;2.35;;;17.20;99.90;;;;;;5009808;28;20187;-51
2022/07/26 00:37:02;;;;;;;15.65;2.58;;;17.20;99.90;;;;;;5009636;28;20116;-52
2022/07/26 00:39:27;;;;;;;19.70;3.47;;;17.20;99.90;;;;;;5009560;28;20057;-52
2022/07/26 00:41:53;;;;;;;12.27;2.63;;;17.50;99.90;;;;;;5009753;28;20503;-54
2022/07/26 00:44:19;;;;;;;12.25;2.53;;;17.10;99.90;;;;;;5009868;28;20046;-54
2022/07/26 00:46:45;;;;;;;14.68;2.40;;;17.30;99.90;;;;;;5009595;28;20049;-54
2022/07/26 00:49:11;;;;;;;15.90;2.53;;;16.80;99.90;;;;;;5009655;28;20128;-54
2022/07/26 00:51:37;;;;;;;15.63;2.45;;;16.90;99.90;;;;;;5009660;28;20042;-54
2022/07/26 00:54:04;;;;;;;13.13;2.47;;;16.70;99.90;;;;;;4991898;28;20095;-55
2022/07/26 00:56:32;;;;;;;12.38;2.47;;;16.50;99.90;;;;;;4991201;28;20750;-54
2022/07/26 00:58:58;;;;;;;14.38;2.63;;;17.00;99.90;;;;;;5009360;28;20076;-54
2022/07/26 01:01:23;;;;;;;13.38;2.97;;;16.40;99.90;;;;;;5008825;28;20468;-53
2022/07/26 01:03:50;;;;;;;19.50;3.30;;;16.40;99.90;;;;;;5009243;28;20052;-54
2022/07/26 01:06:16;;;;;;;15.25;2.83;;;16.30;99.90;;;;;;5008957;28;20042;-54
2022/07/26 01:08:42;;;;;;;16.13;1.98;;;16.40;99.90;;;;;;5008084;28;20388;-54
2022/07/26 01:11:07;;;;;;;18.35;3.25;;;16.30;99.90;;;;;;5008548;28;20500;-55
2022/07/26 01:13:33;;;;;;;11.80;2.50;;;16.70;99.90;;;;;;5008699;28;20056;-54
2022/07/26 01:15:59;;;;;;;17.88;2.38;;;16.30;99.90;;;;;;4991214;28;20053;-55
2022/07/26 01:18:24;;;;;;;14.68;3.28;;;16.60;99.90;;;;;;5009269;28;20045;-55
2022/07/26 01:20:52;;;;;;;10.73;2.10;;;16.70;99.90;;;;;;4974942;28;20112;-54
2022/07/26 01:23:19;;;;;;;13.93;2.83;;;16.20;99.90;;;;;;5008749;28;20504;-55
2022/07/26 01:25:44;;;;;;;14.68;3.08;;;16.20;99.90;;;;;;5008152;28;20041;-53
2022/07/26 01:28:10;;;;;;;14.40;1.92;;;16.10;99.90;;;;;;5009134;28;20411;-52
2022/07/26 01:30:36;;;;;;;20.15;3.25;;;16.60;99.90;;;;;;5009267;28;20408;-54
2022/07/26 01:33:02;;;;;;;10.85;2.97;;;16.10;99.90;;;;;;5009289;28;20095;-53
2022/07/26 01:35:28;;;;;;;12.70;2.47;;;;;;;;;;5008762;28;20121;-54
2022/07/26 01:37:54;;;;;;;15.85;2.78;;;;;;;;;;5007992;28;20140;-57
2022/07/26 01:40:20;;;;;;;12.75;3.22;;;16.00;99.90;;;;;;5008454;28;20138;-53
2022/07/26 01:42:45;;;;;;;16.50;3.40;;;16.00;99.90;;;;;;5008642;28;20041;-54
2022/07/26 01:45:12;;;;;;;16.15;3.03;;;15.90;99.90;;;;;;5008781;28;20112;-54
2022/07/26 01:47:38;;;;;;;11.95;2.78;;;15.80;99.90;;;;;;5008287;28;20057;-53
2022/07/26 01:50:06;;;;;;;15.52;3.50;;;16.00;99.90;;;;;;5008464;28;20049;-52
2022/07/26 01:52:33;;;;;;;13.30;2.92;;;15.80;99.90;;;;;;5007971;28;20075;-52
2022/07/26 01:54:59;;;;;;;11.38;2.83;;;16.10;99.90;;;;;;5007956;28;20526;-51
2022/07/26 01:57:24;;;;;;;13.95;2.30;;;15.70;99.90;;;;;;5007970;28;20045;-52
2022/07/26 01:59:50;;;;;;;11.50;2.40;;;15.50;99.90;;;;;;5008436;28;20053;-51
2022/07/26 02:02:16;;;;;;;14.60;2.42;;;15.70;99.90;;;;;;5008325;28;20283;-50
2022/07/26 02:05:00;;;;;;;15.77;3.20;;;15.70;99.90;;;;;;5007994;28;20045;-51
2022/07/26 02:07:36;;;;;;;12.25;2.72;;;15.70;99.90;;;;;;5007589;28;20042;-54
2022/07/26 02:10:03;;;;;;;14.48;2.85;;;15.70;99.90;;;;;;5007738;28;20053;-53
2022/07/26 02:12:29;;;;;;;13.93;3.20;;;15.80;99.90;;;;;;5007545;28;20157;-53
2022/07/26 02:14:55;;;;;;;14.77;3.30;;;15.80;99.90;;;;;;5008121;28;20173;-51
2022/07/26 02:17:20;;;;;;;10.32;2.42;;;15.80;99.90;;;;;;5007997;28;20038;-51
2022/07/26 02:19:46;;;;;;;13.13;3.00;;;15.80;99.90;;;;;;5007834;28;20498;-53
2022/07/26 02:22:12;;;;;;;12.75;3.22;;;15.90;99.90;;;;;;4990343;28;20492;-53
2022/07/26 02:24:38;;;;;;;10.90;3.05;;;15.90;99.90;;;;;;5007958;28;20451;-54
2022/07/26 02:27:04;;;;;;;12.73;2.78;;;15.90;99.90;;;;;;5007867;28;20492;-53
2022/07/26 02:29:30;;;;;;;11.55;2.90;;;15.90;99.90;;;;;;5007776;28;20089;-53
2022/07/26 02:31:57;;;;;;;18.17;2.63;;;15.90;99.90;;;;;;5008020;28;20034;-54
2022/07/26 02:34:23;;;;;;;10.85;2.72;;;15.80;99.90;;;;;;5008185;28;20041;-53
2022/07/26 02:36:48;;;;;;;12.43;2.80;;;15.90;99.90;;;;;;5007723;28;20046;-53
2022/07/26 02:39:15;;;;;;;12.30;3.28;;;16.00;99.90;;;;;;5007622;28;20045;-54
2022/07/26 02:41:41;;;;;;;13.00;2.10;;;16.00;99.90;;;;;;5007711;28;20033;-54
2022/07/26 02:44:08;;;;;;;12.00;2.60;;;16.00;99.90;;;;;;5007988;28;20448;-54
2022/07/26 02:46:34;;;;;;;12.43;2.75;;;16.00;99.90;;;;;;5007627;28;20045;-53
2022/07/26 02:49:00;;;;;;;17.73;3.65;;;16.30;99.90;;;;;;5007718;28;20121;-52
2022/07/26 02:51:26;;;;;;;9.30;2.10;;;16.10;99.90;;;;;;5007369;28;20044;-53
2022/07/26 02:53:52;;;;;;;11.07;2.88;;;16.10;99.90;;;;;;5007278;28;20076;-54
2022/07/26 02:56:19;;;;;;;13.77;2.67;;;16.10;99.90;;;;;;5007463;28;20116;-53
2022/07/26 02:58:45;;;;;;;12.43;2.83;;;15.90;99.90;;;;;;5007185;28;20084;-53
2022/07/26 03:01:11;;;;;;;9.70;2.67;;;16.10;99.90;;;;;;5007489;28;20069;-54
2022/07/26 03:03:36;;;;;;;16.67;3.80;;;16.10;99.90;;;;;;5007520;28;20400;-53
2022/07/26 03:06:03;;;;;;;9.43;2.63;;;16.20;99.90;;;;;;5007020;28;20196;-53
2022/07/26 03:08:28;;;;;;;11.90;2.90;;;16.20;99.90;;;;;;5006095;28;20058;-53
2022/07/26 03:10:54;;;;;;;13.60;3.38;;;16.20;99.90;;;;;;5006990;28;20052;-53
2022/07/26 03:13:20;;;;;;;10.65;2.17;;;16.30;99.90;;;;;;5007276;28;20793;-54
2022/07/26 03:15:45;;;;;;;8.98;1.90;;;16.30;99.90;;;;;;5007150;28;20041;-54
2022/07/26 03:18:11;;;;;;;9.38;2.17;;;16.40;99.90;;;;;;5007281;28;20070;-52
2022/07/26 03:20:37;;;;;;;7.25;2.13;;;16.50;99.90;;;;;;5007451;28;20123;-54
2022/07/26 03:23:03;;;;;;;5.68;1.75;;;16.50;99.90;;;;;;5007410;28;20048;-52
2022/07/26 03:25:28;;;;;;;16.05;2.50;;;16.60;99.90;;;;;;5007202;28;20092;-54
2022/07/26 03:27:57;;;;;;;5.60;2.00;;;16.60;99.90;;;;;;5006941;28;20133;-55
2022/07/26 03:30:24;;;;;;;8.45;1.67;;;16.70;99.90;;;;;;5006668;28;20060;-54
2022/07/26 03:32:50;;;;;;;7.60;1.20;;;16.60;99.90;;;;;;5006549;28;20128;-53
2022/07/26 03:35:16;;;;;;;5.97;1.15;;;16.60;99.90;;;;;;5006843;28;20052;-55
2022/07/26 03:37:42;;;;;;;5.75;2.35;;;16.80;99.90;;;;;;5005905;28;20511;-54
2022/07/26 03:40:08;;;;;;;3.53;1.15;;;16.40;99.90;;;;;;4989291;28;20496;-54
2022/07/26 03:42:34;;;;;;;4.38;1.00;;;16.40;99.90;;;;;;5006741;28;20160;-54
2022/07/26 03:45:00;;;;;;;4.90;1.42;;;16.30;99.90;;;;;;5006930;28;20072;-53
2022/07/26 03:47:26;;;;;;;6.47;1.10;;;16.30;99.90;;;;;;5006553;28;20054;-55
2022/07/26 03:49:51;;;;;;;6.82;1.50;;;16.20;99.90;;;;;;5008875;28;20060;-55
2022/07/26 03:52:17;;;;;;;9.75;2.05;;;16.20;99.90;;;;;;5010732;28;20563;-54
2022/07/26 03:54:43;;;;;;;4.63;1.98;;;16.10;99.90;;;;;;4992329;28;20045;-54
2022/07/26 03:57:09;;;;;;;5.28;1.40;;;16.90;99.90;;;;;;5010619;28;20120;-54
2022/07/26 03:59:34;;;;;;;4.70;1.30;;;16.10;99.90;;;;;;5010601;28;20041;-55
2022/07/26 04:02:01;;;;;;;6.03;1.15;;;16.00;99.90;;;;;;5010111;28;20606;-54
2022/07/26 04:04:27;;;;;;;7.00;1.40;;;16.00;99.90;;;;;;5010480;28;20402;-53
2022/07/26 04:06:55;;;;;;;4.68;1.63;;;16.00;99.90;;;;;;5010438;28;20041;-55
2022/07/26 04:09:21;;;;;;;5.45;1.75;;;15.90;99.90;;;;;;5009850;28;20062;-53
2022/07/26 04:11:47;;;;;;;7.47;1.92;;;15.90;99.90;;;;;;5008093;28;20038;-47
2022/07/26 04:14:13;;;;;;;8.93;1.70;;;15.90;99.90;;;;;;4998985;28;20097;-55
2022/07/26 04:16:39;;;;;;;7.03;1.77;;;15.90;99.90;;;;;;5004060;28;20057;-56
2022/07/26 04:19:05;;;;;;;6.78;2.00;;;15.90;99.90;;;;;;5007819;28;20071;-54
2022/07/26 04:21:31;;;;;;;14.60;3.28;;;15.80;99.90;;;;;;5007788;28;20488;-53
2022/07/26 04:23:56;;;;;;;6.97;1.65;;;15.80;99.90;;;;;;5007653;28;20044;-45
2022/07/26 04:26:23;;;;;;;9.23;2.95;;;15.80;99.90;;;;;;5008642;28;20518;-57
2022/07/26 04:28:49;;;;;;;7.68;1.75;;;15.80;99.90;;;;;;5007770;28;20120;-54
2022/07/26 04:31:15;;;;;;;11.75;2.33;;;15.90;99.90;;;;;;5009086;28;20037;-54
2022/07/26 04:33:41;;;;;;;10.52;1.92;;;16.00;99.90;;;;;;5009861;28;20049;-57
2022/07/26 04:36:07;;;;;;;10.43;1.70;;;16.10;99.90;;;;;;5009768;28;20045;-57
2022/07/26 04:38:32;;;;;;;13.68;1.80;;;16.20;99.90;;;;;;5008097;28;20053;-57
2022/07/26 04:40:58;;;;;;;9.20;1.33;;;16.30;99.90;;;;;;5009120;28;20049;-57
2022/07/26 04:43:24;;;;;;;10.13;1.23;;;16.70;99.90;;;;;;5009704;28;20096;-57
2022/07/26 04:45:50;;;;;;;9.50;1.13;;;16.60;99.90;;;;;;5009356;28;20141;-57
2022/07/26 04:48:16;;;;;;;4.88;1.00;;;16.60;99.90;;;;;;5009575;28;20128;-57
2022/07/26 04:50:43;;;;;;;6.03;1.08;;;16.70;99.90;;;;;;5009176;28;20487;-57
2022/07/26 04:53:10;;;;;;;5.80;0.93;;;16.70;99.90;;;;;;5009867;28;20157;-57
2022/07/26 04:55:36;;;;;;;7.28;1.02;;;16.90;99.90;;;;;;5009943;28;20423;-57
2022/07/26 04:58:03;;;;;;;4.60;1.00;;;17.00;99.90;;;;;;5009886;28;20088;-57
2022/07/26 05:00:29;;;;;;;4.82;1.00;;;17.20;99.90;;;;;;5010057;28;20050;-57
2022/07/26 05:02:57;;;;;;;5.45;0.70;;;17.50;99.90;;;;;;5009693;28;20046;-57
2022/07/26 05:05:24;;;;;;;4.07;1.00;;;17.10;99.90;;;;;;5009845;28;20500;-57
2022/07/26 05:07:52;;;;;;;6.32;0.80;;;17.50;99.90;;;;;;5009757;28;20041;-57
2022/07/26 05:10:19;;;;;;;5.38;0.70;;;17.60;99.90;;;;;;5008800;28;20054;-57
2022/07/26 05:12:46;;;;;;;4.20;0.80;;;17.60;99.90;;;;;;5009447;28;20385;-57
2022/07/26 05:15:13;;;;;;;4.95;0.90;;;17.60;99.90;;;;;;5009596;28;20046;-57
2022/07/26 05:17:40;;;;;;;4.45;0.68;;;17.70;99.90;;;;;;5009219;28;20519;-57
2022/07/26 05:20:08;;;;;;;5.32;0.85;;;18.00;99.90;;;;;;5008910;28;20504;-58
2022/07/26 05:22:35;;;;;;;4.85;0.82;;;17.80;99.90;;;;;;5009098;28;20087;-57
2022/07/26 05:25:01;;;;;;;7.25;0.85;;;17.80;99.90;;;;;;5009185;28;20052;-57
2022/07/26 05:27:26;;;;;;;9.00;1.00;;;17.80;99.90;;;;;;5009424;28;20048;-57
2022/07/26 05:29:53;;;;;;;7.25;1.20;;;17.70;99.90;;;;;;5008824;28;20045;-57
2022/07/26 05:32:19;;;;;;;3.58;0.70;;;17.70;99.90;;;;;;5009543;28;20084;-57
2022/07/26 05:34:44;;;;;;;7.13;0.38;;;17.40;99.90;;;;;;5009241;28;20447;-57
2022/07/26 05:37:11;;;;;;;2.72;0.30;;;17.60;99.90;;;;;;5009273;28;20041;-57
2022/07/26 05:39:36;;;;;;;6.20;0.40;;;17.60;99.90;;;;;;5008822;28;20522;-57
2022/07/26 05:42:02;;;;;;;6.63;0.60;;;17.50;99.90;;;;;;5009087;28;20041;-57
2022/07/26 05:44:28;;;;;;;8.15;1.35;;;17.50;99.90;;;;;;5009109;28;20495;-57
2022/07/26 05:46:54;;;;;;;7.55;0.50;;;17.50;99.90;;;;;;5008630;28;20096;-57
2022/07/26 05:49:19;;;;;;;4.45;0.43;;;17.50;99.90;;;;;;5008799;28;20038;-57
2022/07/26 05:51:45;;;;;;;4.72;0.88;;;17.60;99.90;;;;;;5008890;28;20048;-57
2022/07/26 05:54:10;;;;;;;7.53;0.20;;;17.60;99.90;;;;;;5023589;28;20046;-57
2022/07/26 05:56:36;;;;;;;4.82;0.63;;;17.70;99.90;;;;;;5008874;28;20042;-57
2022/07/26 05:59:02;;;;;;;5.53;0.70;;;17.70;99.90;;;;;;5008675;28;20068;-57
2022/07/26 06:01:31;;;;;;;4.88;0.40;;;17.80;99.90;;;;;;5008874;28;20037;-57
2022/07/26 06:03:57;;;;;;;5.32;0.40;;;17.90;99.90;;;;;;5008355;28;20103;-57
2022/07/26 06:06:23;;;;;;;4.95;0.45;;;18.00;99.90;;;;;;5009136;28;20490;-57
2022/07/26 06:08:49;;;;;;;5.82;0.50;;;18.20;99.90;;;;;;5008472;28;20058;-57
2022/07/26 06:11:14;;;;;;;3.50;0.25;;;18.40;99.90;;;;;;5007920;28;20500;-57
2022/07/26 06:13:40;;;;;;;5.35;0.30;;;18.50;99.90;;;;;;5008339;28;20056;-57
2022/07/26 06:16:06;;;;;;;6.15;0.25;;;18.60;99.90;;;;;;5008592;28;20034;-57
2022/07/26 06:18:32;;;;;;;5.60;0.40;;;18.60;99.90;;;;;;5008874;28;20479;-57
2022/07/26 06:20:58;;;;;;;5.75;0.20;;;18.60;99.90;;;;;;5008344;28;20100;-57
2022/07/26 06:23:23;;;;;;;6.25;0.30;;;18.60;99.90;;;;;;5008719;28;20041;-57
2022/07/26 06:25:49;;;;;;;3.63;0.20;;;18.50;99.90;;;;;;5008517;28;20057;-57
2022/07/26 06:28:15;;;;;;;6.82;0.88;;;18.40;99.90;;;;;;5008133;28;20042;-57
2022/07/26 06:30:43;;;;;;;4.05;0.20;;;18.30;99.90;;;;;;5008058;28;20070;-57
2022/07/26 06:33:09;;;;;;;4.38;0.30;;;18.20;99.90;;;;;;5007872;28;20076;-57
2022/07/26 06:35:37;;;;;;;1.38;0.25;;;18.20;99.90;;;;;;5007730;28;20099;-57
2022/07/26 06:38:03;;;;;;;5.10;0.40;;;18.30;99.90;;;;;;5007527;28;20045;-57
2022/07/26 06:40:29;;;;;;;6.78;0.40;;;18.50;99.90;;;;;;5006993;28;20146;-57
2022/07/26 06:42:54;;;;;;;5.07;0.95;;;18.80;99.90;;;;;;5007710;28;20642;-57
2022/07/26 06:45:20;;;;;;;4.00;0.43;;;19.30;99.90;;;;;;5007798;28;20061;-57
2022/07/26 06:47:46;;;;;;;3.08;0.55;;;19.50;99.90;;;;;;5007662;28;20042;-57
2022/07/26 06:50:11;;;;;;;4.13;0.30;;;19.70;99.90;;;;;;5007435;28;20062;-56
2022/07/26 06:52:37;;;;;;;4.32;0.30;;;19.90;99.90;;;;;;5007524;28;20173;-57
2022/07/26 06:55:04;;;;;;;5.10;0.30;;;20.30;99.90;;;;;;5005981;28;20049;-57
2022/07/26 06:57:30;;;;;;;4.10;0.30;;;20.90;99.90;;;;;;5007777;28;20356;-57
2022/07/26 06:59:55;;;;;;;3.67;0.30;;;21.30;99.90;;;;;;5007502;28;20049;-57
2022/07/26 07:02:21;;;;;;;11.07;2.05;;;21.40;99.90;;;;;;5007560;28;20401;-57
2022/07/26 07:04:47;;;;;;;2.63;0.20;;;21.60;99.90;;;;;;5007485;28;20399;-57
2022/07/26 07:07:12;;;;;;;4.68;0.30;;;21.70;99.90;;;;;;5007280;28;20041;-41
2022/07/26 07:09:38;;;;;;;4.45;0.30;;;21.50;99.90;;;;;;5006648;28;20056;-41
2022/07/26 07:12:06;;;;;;;5.95;0.50;;;21.30;99.90;;;;;;5006667;28;20042;-43
2022/07/26 07:14:32;;;;;;;6.18;0.20;;;21.10;99.90;;;;;;5007003;28;20042;-40
2022/07/26 07:16:58;;;;;;;5.47;0.28;;;20.90;99.90;;;;;;5006935;28;20049;-41
2022/07/26 07:19:24;;;;;;;3.20;0.22;;;20.70;99.90;;;;;;5006893;28;20038;-40
2022/07/26 07:21:50;;;;;;;5.75;0.30;;;20.50;99.90;;;;;;5007215;28;20038;-40
2022/07/26 07:24:16;;;;;;;4.78;0.22;;;20.40;99.90;;;;;;5005905;28;20042;-41
2022/07/26 07:26:42;;;;;;;4.47;0.82;;;20.10;99.90;;;;;;5006945;28;20038;-41
2022/07/26 07:29:13;;;;;;;3.63;0.30;;;19.90;99.90;;;;;;5004497;28;20046;-41
2022/07/26 07:31:39;;;;;;;4.22;0.20;;;19.70;99.90;;;;;;5006079;28;20049;-41
2022/07/26 07:34:05;;;;;;;3.25;0.55;;;19.60;99.90;;;;;;5006181;28;20129;-41
2022/07/26 07:36:31;;;;;;;2.17;0.60;;;19.50;99.90;;;;;;5006523;28;20484;-41
2022/07/26 07:38:57;;;;;;;3.30;0.32;;;19.70;99.90;;;;;;5006677;28;20419;-42
2022/07/26 07:41:22;;;;;;;2.55;0.20;;;20.00;99.90;;;;;;5006062;28;20499;-41
2022/07/26 07:43:48;;;;;;;5.15;0.50;;;21.10;99.90;;;;;;5006489;28;20431;-42
2022/07/26 07:46:14;;;;;;;4.20;0.55;;;21.60;99.90;;;;;;5006294;28;20119;-41
2022/07/26 07:48:40;;;;;;;5.68;0.63;;;21.90;99.90;;;;;;5006519;28;20133;-41
2022/07/26 07:51:07;;;;;;;7.03;0.30;;;22.20;99.90;;;;;;5006247;28;20401;-41
2022/07/26 07:53:33;;;;;;;4.63;0.50;;;22.80;99.90;;;;;;5006742;28;20575;-41
2022/07/26 07:55:59;;;;;;;3.20;0.20;;;23.10;99.50;;;;;;5006426;28;20064;-41
2022/07/26 07:58:25;;;;;;;5.03;0.30;;;23.00;98.10;;;;;;5006593;28;20049;-41
2022/07/26 08:00:51;;;;;;;4.30;0.65;;;22.90;98.20;;;;;;5006552;28;20057;-41
2022/07/26 08:03:16;;;;;;;4.43;0.43;;;22.80;97.70;;;;;;5006855;28;20095;-41
2022/07/26 08:05:42;;;;;;;7.63;0.40;;;23.00;97.20;;;;;;5006794;28;20080;-42
2022/07/26 08:08:08;;;;;;;3.88;0.20;;;23.10;95.30;;;;;;5006618;28;20045;-42
2022/07/26 08:10:34;;;;;;;2.33;0.20;;;23.20;94.20;;;;;;5004598;28;20058;-42
2022/07/26 08:13:00;;;;;;;1.67;0.13;;;23.20;94.30;;;;;;5006739;28;20065;-41
2022/07/26 08:15:26;;;;;;;3.28;0.30;;;23.20;92.90;;;;;;5006356;28;20480;-41
2022/07/26 08:17:52;;;;;;;6.10;0.40;;;23.20;93.00;;;;;;5006322;28;20042;-42
2022/07/26 08:20:18;;;;;;;3.05;0.20;;;23.30;92.60;;;;;;5006007;28;20103;-41
2022/07/26 08:22:44;;;;;;;3.25;0.40;;;23.50;92.00;;;;;;5006408;28;20054;-42
2022/07/26 08:25:09;;;;;;;3.42;0.30;;;23.80;92.00;;;;;;5006315;28;20112;-42
2022/07/26 08:27:35;;;;;;;6.50;0.82;;;24.40;91.70;;;;;;5006143;28;20095;-42
2022/07/26 08:30:01;;;;;;;4.43;0.38;;;25.80;90.30;;;;;;5006253;28;20525;-41
2022/07/26 08:32:27;;;;;;;3.03;0.28;;;27.10;89.40;;;;;;5005616;28;20050;-42
2022/07/26 08:34:52;;;;;;;2.97;0.30;;;28.80;79.40;;;;;;5006758;28;20037;-43
2022/07/26 08:37:18;;;;;;;3.55;0.20;;;29.40;75.00;;;;;;5009668;28;20034;-41
2022/07/26 08:39:46;;;;;;;3.53;0.40;;;29.30;72.30;;;;;;5009876;28;20091;-42
2022/07/26 08:42:16;;;;;;;3.03;0.38;;;28.40;70.60;;;;;;5009671;28;20862;-41
2022/07/26 08:44:44;;;;;;;6.28;0.57;;;27.30;69.30;;;;;;5010064;28;20054;-41
2022/07/26 08:47:14;;;;;;;7.35;0.80;;;26.40;71.40;;;;;;5009584;28;20054;-41
2022/07/26 08:49:41;;;;;;;5.03;0.20;;;25.80;90.50;;;;;;5009985;28;20384;-42
2022/07/26 08:52:08;;;;;;;5.07;0.30;;;25.10;73.40;;;;;;5010066;28;20041;-41
2022/07/26 08:54:34;;;;;;;6.07;0.40;;;25.00;74.40;;;;;;5009626;28;20045;-42
2022/07/26 08:56:59;;;;;;;9.65;0.68;;;25.20;73.80;;;;;;5009887;28;20041;-42
2022/07/26 08:59:25;;;;;;;5.47;0.63;;;25.30;74.00;;;;;;5009753;28;20376;-42
2022/07/26 09:01:52;;;;;;;3.03;0.30;;;25.50;74.00;;;;;;5009811;28;20099;-42
2022/07/26 09:04:20;;;;;;;4.78;0.30;;;26.00;73.90;;;;;;5009593;28;20395;-42
2022/07/26 09:07:05;;;;;;;2.60;0.30;;;26.60;71.80;;;;;;5009659;28;20365;-42
2022/07/26 09:09:33;;;;;;;3.92;0.38;;;27.40;71.80;;;;;;5008582;28;20393;-41
2022/07/26 09:12:13;;;;;;;2.75;0.30;;;28.20;69.70;;;;;;5008994;28;20555;-41
2022/07/26 09:14:39;;;;;;;4.72;0.47;;;28.70;65.80;;;;;;5009365;28;20127;-42
2022/07/26 09:17:05;;;;;;;2.03;0.28;;;28.40;65.50;;;;;;5009354;28;20038;-42
2022/07/26 09:19:31;;;;;;;4.28;0.63;;;27.90;65.20;;;;;;5009148;28;20064;-41
2022/07/26 09:22:09;;;;;;;2.25;0.30;;;27.30;66.00;;;;;;5008915;28;20092;-41
2022/07/26 09:24:40;;;;;;;1.98;0.17;;;26.80;66.20;;;;;;5008817;28;20488;-41
2022/07/26 09:27:11;;;;;;;3.13;0.30;;;26.50;66.00;;;;;;5009147;28;20041;-41
2022/07/26 09:29:49;;;;;;;3.03;0.30;;;26.20;66.70;;;;;;5008949;28;20092;-41
2022/07/26 09:32:17;;;;;;;1.85;0.20;;;26.20;67.60;;;;;;5009147;28;20042;-40
2022/07/26 09:34:51;;;;;;;3.17;0.30;;;26.00;67.60;;;;;;5008823;28;20049;-41
2022/07/26 09:37:17;;;;;;;3.63;0.38;;;25.70;67.40;;;;;;5008690;28;20038;-42
2022/07/26 09:39:58;;;;;;;3.40;0.47;;;25.40;68.40;;;;;;5009040;28;20046;-42
2022/07/26 09:42:25;;;;;;;3.53;0.20;;;24.90;68.00;;;;;;5008549;28;20046;-41
2022/07/26 09:44:52;;;;;;;6.50;0.43;;;24.50;70.30;;;;;;5008445;28;20057;-41
2022/07/26 09:47:17;;;;;;;1.83;0.20;;;24.20;71.50;;;;;;5007823;28;20049;-41
2022/07/26 09:49:43;;;;;;;2.95;0.20;;;24.10;73.00;;;;;;5009017;28;20042;-40
2022/07/26 09:52:20;;;;;;;5.75;0.32;;;24.10;73.60;;;;;;5009149;28;20042;-41
2022/07/26 09:54:48;;;;;;;3.80;0.38;;;24.30;73.20;;;;;;5008893;28;20045;-41
2022/07/26 09:57:19;;;;;;;5.50;0.98;;;25.10;74.60;;;;;;5008573;28;20492;-42
2022/07/26 09:59:46;;;;;;;3.00;0.20;;;26.10;73.20;;;;;;5008218;28;20042;-41
2022/07/26 10:02:13;;;;;;;2.42;0.35;;;27.80;71.50;;;;;;5008125;28;20041;-42
2022/07/26 10:04:41;;;;;;;3.22;0.20;;;29.80;67.40;;;;;;5008379;28;20094;-43
2022/07/26 10:07:09;;;;;;;5.00;0.40;;;30.40;63.10;;;;;;5008204;28;20034;-41
2022/07/26 10:10:13;;;;;;;5.32;0.38;;;30.50;61.50;;;;;;5007418;28;20515;-42
2022/07/26 10:12:42;;;;;;;4.90;0.60;;;30.10;60.00;;;;;;4946569;29;20047;-41
2022/07/26 10:15:39;;;;;;;2.15;0.30;;;29.40;60.20;;;;;;4998380;28;20472;-41
2022/07/26 10:18:07;;;;;;;3.28;0.30;;;28.60;59.10;;;;;;5008060;28;20049;-43
2022/07/26 10:20:42;;;;;;;5.97;0.73;;;27.90;61.60;;;;;;5007516;28;20046;-41
2022/07/26 10:23:37;;;;;;;2.40;0.30;;;27.50;61.40;;;;;;5007923;28;20073;-41
2022/07/26 10:26:05;;;;;;;5.82;0.47;;;27.20;63.30;;;;;;5007756;28;20126;-42
2022/07/26 10:28:34;;;;;;;5.10;0.47;;;27.80;62.50;;;;;;5007464;28;20057;-41
2022/07/26 10:31:18;;;;;;;4.50;0.40;;;27.50;62.00;;;;;;5007703;28;20054;-41
2022/07/26 10:33:47;;;;;;;6.07;0.90;;;27.00;62.50;;;;;;5007728;28;20038;-42
2022/07/26 10:36:27;;;;;;;4.35;0.63;;;26.70;63.80;;;;;;5005847;28;20400;-41
2022/07/26 10:39:13;;;;;;;6.38;0.88;;;26.50;63.20;;;;;;5007468;28;20046;-43
2022/07/26 10:41:55;;;;;;;5.25;0.60;;;26.60;64.40;;;;;;5007158;28;20496;-40
2022/07/26 10:44:26;;;;;;;7.10;1.42;;;26.90;63.50;;;;;;5007641;28;20533;-41
2022/07/26 10:47:14;;;;;;;6.13;1.05;;;27.60;63.00;;;;;;5007772;28;20388;-41
2022/07/26 10:49:57;;;;;;;8.45;0.73;;;27.70;61.30;;;;;;5007274;28;20096;-42
2022/07/26 10:52:27;;;;;;;6.75;1.05;;;27.30;61.50;;;;;;5007229;28;20056;-40
2022/07/26 10:54:55;;;;;;;8.15;0.70;;;26.90;61.40;;;;;;5007288;28;20116;-41
2022/07/26 10:57:22;;;;;;;11.63;1.50;;;26.30;62.00;;;;;;5007465;28;20056;-41
2022/07/26 10:59:48;;;;;;;9.50;0.90;;;25.80;62.60;;;;;;5007372;28;20046;-40
2022/07/26 11:02:21;;;;;;;5.50;0.68;;;25.40;63.20;;;;;;5007214;28;20046;-41
2022/07/26 11:04:48;;;;;;;8.30;1.25;;;25.10;63.70;;;;;;5007222;28;20050;-41
2022/07/26 11:07:13;;;;;;;11.07;0.90;;;24.70;63.90;;;;;;5007257;28;20131;-41
2022/07/26 11:09:39;;;;;;;9.95;0.70;;;24.30;64.40;;;;;;5006066;28;20631;-43
2022/07/26 11:12:16;;;;;;;4.05;0.70;;;24.10;65.50;;;;;;5006857;28;20050;-41
2022/07/26 11:14:41;;;;;;;6.22;1.02;;;24.00;65.20;;;;;;5007081;28;20082;-41
2022/07/26 11:17:07;;;;;;;6.03;1.15;;;24.10;65.80;;;;;;5007322;28;20567;-41
2022/07/26 11:19:38;;;;;;;5.47;0.70;;;24.20;65.70;;;;;;5007042;28;20435;-41
2022/07/26 11:22:04;;;;;;;8.52;0.77;;;24.30;63.30;;;;;;5007389;28;20115;-42
2022/07/26 11:24:30;;;;;;;6.25;0.73;;;24.10;64.50;;;;;;5007121;28;20088;-42
2022/07/26 11:27:02;;;;;;;8.63;0.60;;;23.90;65.50;;;;;;5007180;28;20151;-41
2022/07/26 11:29:31;;;;;;;8.50;1.10;;;23.90;66.60;;;;;;5007139;28;20037;-41
2022/07/26 11:31:57;;;;;;;6.57;0.90;;;24.10;66.60;;;;;;5007238;28;20053;-41
2022/07/26 11:34:24;;;;;;;10.02;0.98;;;24.50;67.00;;;;;;5007504;28;20048;-41
2022/07/26 11:36:52;;;;;;;5.88;0.80;;;25.00;66.30;;;;;;5006592;28;20042;-41
2022/07/26 11:39:23;;;;;;;5.07;0.43;;;25.20;66.00;;;;;;5006968;28;20140;-41
2022/07/26 11:41:51;;;;;;;6.82;0.50;;;25.40;65.00;;;;;;5007291;28;20142;-42
2022/07/26 11:44:21;;;;;;;8.65;1.00;;;25.40;64.70;;;;;;5007505;28;20435;-42
2022/07/26 11:46:48;;;;;;;5.93;0.80;;;25.60;64.70;;;;;;5005950;28;20046;-42
2022/07/26 11:49:19;;;;;;;6.53;0.90;;;25.60;64.60;;;;;;5007505;28;20758;-42
2022/07/26 11:51:59;;;;;;;6.88;0.80;;;25.40;62.40;;;;;;5006696;28;20045;-41
2022/07/26 11:54:30;;;;;;;7.63;0.82;;;25.40;64.00;;;;;;5006929;28;20084;-41
2022/07/26 11:56:56;;;;;;;;;;;25.40;64.10;;;;;;5007367;28;20369;-42
2022/07/26 11:59:24;;;;;;;8.15;0.60;;;25.60;64.00;;;;;;5006695;28;19921;-41
2022/07/26 12:01:50;;;;;;;7.18;0.70;;;25.60;64.70;;;;;;5007132;28;20475;-41
2022/07/26 12:04:22;;;;;;;3.72;0.50;;;25.70;63.20;;;;;;5007177;28;20069;-41
2022/07/26 12:06:48;;;;;;;15.63;1.98;;;25.50;62.50;;;;;;5007291;28;20034;-41
2022/07/26 12:09:34;;;;;;;6.47;0.68;;;25.30;63.20;;;;;;5006739;28;20492;-41
2022/07/26 12:12:03;;;;;;;4.95;0.55;;;25.10;63.60;;;;;;5010409;28;20085;-41
2022/07/26 12:14:34;;;;;;;4.22;0.30;;;24.90;64.40;;;;;;5010483;28;20507;-41
2022/07/26 12:17:29;;;;;;;20.07;2.60;;;24.80;64.40;;;;;;5010770;28;20049;-42
2022/07/26 12:19:57;;;;;;;6.65;1.10;;;24.70;63.20;;;;;;4997578;28;20289;-42
2022/07/26 12:22:23;;;;;;;5.47;0.40;;;24.50;63.30;;;;;;5010742;28;20147;-41
2022/07/26 12:24:55;;;;;;;6.30;0.55;;;24.30;62.90;;;;;;5010092;28;20038;-41
2022/07/26 12:27:24;;;;;;;5.32;0.40;;;24.00;64.00;;;;;;5010424;28;20581;-41
2022/07/26 12:29:52;;;;;;;4.30;0.55;;;23.70;64.90;;;;;;5008606;28;20050;-41
2022/07/26 12:32:19;;;;;;;4.03;0.82;;;23.60;65.70;;;;;;5010504;28;20391;-42
2022/07/26 12:35:02;;;;;;;6.18;0.93;;;23.50;66.20;;;;;;5008867;28;20159;-41
2022/07/26 12:37:29;;;;;;;5.50;0.40;;;23.50;64.50;;;;;;5010310;28;20476;-42
2022/07/26 12:40:10;;;;;;;6.30;0.38;;;23.40;65.40;;;;;;5010058;28;20395;-41
2022/07/26 12:42:39;;;;;;;3.43;0.30;;;23.30;64.80;;;;;;5009942;28;20077;-41
2022/07/26 12:45:08;;;;;;;4.47;0.22;;;23.30;63.80;;;;;;5009700;28;20050;-41
2022/07/26 12:47:40;;;;;;;2.40;0.30;;;23.10;64.30;;;;;;5009800;28;20049;-41
2022/07/26 12:50:07;;;;;;;4.22;0.30;;;23.00;66.00;;;;;;5009736;28;20557;-41